Time;durP1;ratioP1;P1;durP2;ratioP2;P2;SDS_P1;SDS_P2;PMS_P1;PMS_P2;Temp;Humidity;BMP_temperature;BMP_pressure;BME280_temperature;BME280_humidity;BME280_pressure;Samples;Min_cycle;Max_cycle;Signal;HPM_P1;HPM_P2
2021/01/14 00:02:19;;;;;;;67.70;46.42;;;;;;;0.10;86.88;100252.94;5073877;28;20044;-77
2021/01/14 00:05:27;;;;;;;69.22;46.42;;;;;;;0.13;86.98;100244.88;5073555;28;20048;-77
2021/01/14 00:08:35;;;;;;;67.10;44.70;;;;;;;0.17;86.98;100243.84;5073802;28;20067;-76
2021/01/14 00:11:45;;;;;;;64.13;43.55;;;;;;;0.19;86.70;100231.41;5072753;28;20052;-77
2021/01/14 00:14:53;;;;;;;60.83;42.13;;;;;;;0.19;86.45;100220.88;5073760;28;20411;-77
2021/01/14 00:18:01;;;;;;;61.58;41.03;;;;;;;0.17;85.96;100208.66;5072848;28;20055;-78
2021/01/14 00:21:09;;;;;;;50.42;35.67;;;;;;;0.22;85.25;100222.50;5073395;28;20491;-77
2021/01/14 00:24:18;;;;;;;46.78;33.90;;;;;;;0.10;84.68;100208.09;5083752;28;20064;-76
2021/01/14 00:27:28;;;;;;;43.63;32.80;;;;;;;0.04;84.44;100191.72;5073560;28;20039;-76
2021/01/14 00:30:36;;;;;;;49.42;32.65;;;;;;;-0.06;84.18;100178.09;5074115;28;20052;-77
2021/01/14 00:33:43;;;;;;;46.95;31.98;;;;;;;-0.07;84.34;100184.28;5073200;28;20044;-75
2021/01/14 00:40:21;;;;;;;45.40;31.50;;;;;;;-0.10;84.21;100179.19;5073599;28;20067;-78
2021/01/14 00:43:31;;;;;;;45.65;32.88;;;;;;;-0.02;84.24;100203.41;5074220;28;20056;-77
2021/01/14 00:46:38;;;;;;;44.35;33.03;;;;;;;-0.04;84.45;100195.56;5077463;28;20048;-78
2021/01/14 00:49:46;;;;;;;54.70;34.40;;;;;;;-0.07;84.38;100193.06;5077445;28;20043;-76
2021/01/14 00:52:54;;;;;;;53.10;34.42;;;;;;;-0.14;84.83;100190.78;5077407;28;20040;-77
2021/01/14 00:56:02;;;;;;;52.90;35.20;;;;;;;-0.25;85.19;100157.03;5077346;28;20383;-79
2021/01/14 00:59:09;;;;;;;51.65;37.63;;;;;;;-0.25;85.55;100149.13;5077232;28;20051;-79
2021/01/14 01:02:17;;;;;;;53.50;36.55;;;;;;;-0.16;85.79;100163.63;5077101;28;20052;-76
2021/01/14 01:05:25;;;;;;;50.80;36.13;;;;;;;-0.21;85.92;100155.09;5077144;28;20048;-78
2021/01/14 01:08:32;;;;;;;48.17;35.50;;;;;;;-0.21;86.53;100142.75;5076789;28;20051;-78
2021/01/14 01:11:39;;;;;;;48.28;35.88;;;;;;;-0.14;86.03;100138.03;5077048;28;20051;-76
2021/01/14 01:14:44;;;;;;;46.45;35.30;;;;;;;-0.16;86.20;100131.97;5076142;28;20063;-76
2021/01/14 01:17:49;;;;;;;48.78;36.22;;;;;;;-0.18;85.97;100139.97;5076082;28;20048;-77
2021/01/14 01:20:53;;;;;;;51.90;37.53;;;;;;;-0.18;86.01;100134.72;5076716;28;20048;-79
2021/01/14 01:23:58;;;;;;;48.83;34.78;;;;;;;-0.20;85.97;100115.44;5076078;28;20072;-76
2021/01/14 01:27:03;;;;;;;48.67;34.72;;;;;;;-0.16;85.77;100131.97;5076157;28;20056;-77
2021/01/14 01:30:08;;;;;;;47.28;33.20;;;;;;;-0.13;85.71;100142.41;5076666;28;20052;-78
2021/01/14 01:33:13;;;;;;;44.22;32.30;;;;;;;-0.12;85.41;100149.34;5076638;28;20056;-78
2021/01/14 01:36:17;;;;;;;47.17;30.65;;;;;;;-0.08;84.91;100143.03;5076067;28;20045;-78
2021/01/14 01:39:21;;;;;;;45.40;32.00;;;;;;;-0.15;84.32;100120.53;5076441;28;20055;-76
2021/01/14 01:42:26;;;;;;;42.78;31.45;;;;;;;-0.24;85.07;100131.47;5076410;28;20040;-77
2021/01/14 01:45:30;;;;;;;44.35;32.35;;;;;;;-0.27;85.19;100123.75;5076245;28;20506;-76
2021/01/14 01:48:36;;;;;;;45.30;31.65;;;;;;;-0.24;85.42;100128.84;5076745;28;20052;-75
2021/01/14 01:51:42;;;;;;;44.88;31.00;;;;;;;-0.25;85.10;100121.88;5076423;28;20036;-78
2021/01/14 01:54:46;;;;;;;38.20;27.58;;;;;;;-0.33;85.25;100119.59;5086641;28;20051;-78
2021/01/14 01:57:51;;;;;;;32.42;23.38;;;;;;;-0.34;84.98;100112.63;5076171;28;20033;-77
2021/01/14 02:00:55;;;;;;;35.45;26.27;;;;;;;-0.38;84.78;100091.75;5076194;28;20041;-77
2021/01/14 02:04:00;;;;;;;35.55;24.40;;;;;;;-0.43;84.48;100091.97;5075706;28;20044;-77
2021/01/14 02:07:08;;;;;;;37.40;24.52;;;;;;;-0.49;84.86;100083.50;5076289;28;20102;-77
2021/01/14 02:10:33;;;;;;;33.40;22.50;;;;;;;-0.47;84.80;100097.47;5075919;28;20051;-77
2021/01/14 02:13:56;;;;;;;;;;;;;;;-0.47;84.77;100092.19;5087105;28;20051;-78
2021/01/14 02:17:00;;;;;;;32.22;22.50;;;;;;;-0.49;84.67;100073.78;5082813;28;20295;-77
2021/01/14 02:20:06;;;;;;;31.58;22.85;;;;;;;-0.49;84.48;100078.22;5095936;28;20063;-76
2021/01/14 02:23:52;;;;;;;30.52;22.25;;;;;;;-0.41;84.45;100078.69;5095074;28;20407;-78
2021/01/14 02:26:58;;;;;;;37.33;24.75;;;;;;;-0.41;84.42;100057.59;5074519;28;20055;-77
2021/01/14 02:30:10;;;;;;;40.55;26.90;;;;;;;-0.35;84.40;100073.16;5095306;28;20384;-78
2021/01/14 02:33:14;;;;;;;36.10;26.60;;;;;;;-0.37;84.08;100052.09;5094896;28;20470;-75
2021/01/14 02:36:20;;;;;;;36.55;26.40;;;;;;;-0.46;84.38;100038.53;5095631;28;20047;-76
2021/01/14 02:39:24;;;;;;;34.63;26.13;;;;;;;-0.46;84.53;100025.34;5094258;28;20565;-78
2021/01/14 02:42:28;;;;;;;35.25;25.27;;;;;;;-0.53;84.72;100027.44;5095515;28;20051;-76
2021/01/14 02:45:34;;;;;;;39.33;28.30;;;;;;;-0.56;85.58;100022.28;5094683;28;20052;-77
2021/01/14 02:48:43;;;;;;;42.78;28.90;;;;;;;-0.49;85.83;100022.88;5094292;28;20048;-76
2021/01/14 02:51:51;;;;;;;42.15;30.25;;;;;;;-0.45;86.54;100020.00;5094509;28;20394;-77
2021/01/14 02:54:58;;;;;;;46.58;33.10;;;;;;;-0.35;86.78;100028.31;5095335;28;20463;-79
2021/01/14 02:58:02;;;;;;;40.78;30.83;;;;;;;-0.37;87.25;100023.09;5094088;28;20047;-78
2021/01/14 03:01:07;;;;;;;39.47;29.52;;;;;;;-0.31;87.03;100016.69;5095216;28;20494;-78
2021/01/14 03:04:11;;;;;;;38.80;28.73;;;;;;;-0.28;86.81;100011.28;5095036;28;20044;-79
2021/01/14 03:07:16;;;;;;;36.17;28.05;;;;;;;-0.21;86.75;99991.56;5093402;28;20071;-76
2021/01/14 03:10:20;;;;;;;38.13;26.33;;;;;;;-0.20;86.35;99980.13;5094121;28;20055;-76
2021/01/14 03:13:24;;;;;;;34.33;24.35;;;;;;;-0.25;86.02;99977.72;5094902;28;20391;-77
2021/01/14 03:16:29;;;;;;;34.10;26.10;;;;;;;-0.30;85.71;99957.78;5094839;28;20494;-79
2021/01/14 03:19:15;;;;;;;36.40;26.13;;;;;;;-0.23;85.56;99965.28;5094551;28;20035;-79
2021/01/14 03:22:19;;;;;;;32.95;25.48;;;;;;;-0.20;85.59;99951.09;5081626;28;20055;-78
2021/01/14 03:25:24;;;;;;;34.53;24.13;;;;;;;-0.20;85.12;99946.66;5093989;28;20051;-77
2021/01/14 03:28:28;;;;;;;31.35;24.05;;;;;;;-0.20;84.78;99949.28;5094495;28;20043;-78
2021/01/14 03:31:32;;;;;;;30.55;22.35;;;;;;;-0.18;84.70;99938.69;5094627;28;20047;-78
2021/01/14 03:34:37;;;;;;;34.03;23.40;;;;;;;-0.27;84.59;99925.97;5093719;28;20052;-76
2021/01/14 03:37:43;;;;;;;29.92;21.75;;;;;;;-0.24;84.38;99947.75;5094486;28;20071;-77
2021/01/14 03:40:47;;;;;;;28.05;21.10;;;;;;;-0.20;84.17;99949.28;5093969;28;20059;-78
2021/01/14 03:43:52;;;;;;;30.85;21.77;;;;;;;-0.21;84.17;99955.53;5094232;28;20078;-77
2021/01/14 03:46:56;;;;;;;29.20;21.67;;;;;;;-0.18;84.07;99950.09;5094038;28;20071;-77
2021/01/14 03:50:01;;;;;;;27.15;20.58;;;;;;;-0.27;84.52;99932.06;5094362;28;20055;-77
2021/01/14 03:53:06;;;;;;;30.73;20.23;;;;;;;-0.24;83.92;99938.97;5094451;28;20051;-78
2021/01/14 03:56:10;;;;;;;28.17;20.05;;;;;;;-0.20;83.78;99920.28;5093572;28;20496;-78
2021/01/14 03:59:14;;;;;;;29.40;20.48;;;;;;;-0.15;83.65;99922.72;5094159;28;20055;-79
2021/01/14 04:02:19;;;;;;;23.73;18.50;;;;;;;-0.12;83.90;99906.72;5093188;28;20403;-77
2021/01/14 04:05:23;;;;;;;28.13;19.58;;;;;;;-0.05;83.44;99919.50;5093893;28;20062;-77
2021/01/14 04:08:27;;;;;;;27.00;19.00;;;;;;;-0.01;83.14;99926.34;5094028;28;20050;-77
2021/01/14 04:11:33;;;;;;;25.05;18.42;;;;;;;-0.02;83.23;99926.41;5093928;28;20051;-78
2021/01/14 04:14:38;;;;;;;27.88;20.23;;;;;;;-0.04;83.01;99904.53;5094069;28;20059;-77
2021/01/14 04:17:42;;;;;;;27.27;19.95;;;;;;;0.00;83.17;99896.38;5093580;28;20101;-77
2021/01/14 04:20:46;;;;;;;29.55;19.77;;;;;;;0.04;82.99;99898.88;5093588;28;20050;-76
2021/01/14 04:23:51;;;;;;;28.80;20.95;;;;;;;0.06;82.93;99904.91;5093709;28;20047;-78
2021/01/14 04:26:55;;;;;;;30.60;21.88;;;;;;;-0.07;83.05;99878.31;5093792;28;20051;-77
2021/01/14 04:30:00;;;;;;;25.90;20.42;;;;;;;-0.04;83.52;99893.97;5093944;28;20043;-78
2021/01/14 04:33:11;;;;;;;32.97;22.20;;;;;;;0.02;83.11;99888.41;5093451;28;20481;-77
2021/01/14 04:36:16;;;;;;;27.20;21.10;;;;;;;0.06;83.32;99902.28;5093550;28;20390;-78
2021/01/14 04:39:21;;;;;;;29.92;21.85;;;;;;;0.04;83.31;99894.44;5093488;28;20063;-78
2021/01/14 04:42:28;;;;;;;32.78;21.33;;;;;;;0.02;83.27;99863.81;5093589;28;20466;-77
2021/01/14 04:45:33;;;;;;;27.70;21.70;;;;;;;0.03;83.53;99866.34;5093509;28;20047;-79
2021/01/14 04:48:45;;;;;;;29.75;21.73;;;;;;;0.06;83.32;99867.97;5093481;28;20039;-77
2021/01/14 04:51:59;;;;;;;29.55;21.95;;;;;;;0.00;83.25;99851.53;5093462;28;20378;-78
2021/01/14 04:55:08;;;;;;;31.88;22.20;;;;;;;0.00;83.50;99858.63;5093270;28;20039;-77
2021/01/14 04:58:19;;;;;;;31.17;22.10;;;;;;;0.06;83.38;99857.41;5092705;28;20051;-77
2021/01/14 05:01:25;;;;;;;29.55;21.48;;;;;;;-0.01;83.15;99841.06;5081258;28;20063;-78
2021/01/14 05:04:31;;;;;;;26.77;20.75;;;;;;;-0.02;83.14;99847.28;5081743;28;20055;-77
2021/01/14 05:07:47;;;;;;;26.23;19.73;;;;;;;0.04;82.79;99852.25;5073184;28;20052;-77
2021/01/14 05:10:52;;;;;;;28.15;19.83;;;;;;;0.03;82.73;99836.47;5073075;28;20043;-77
2021/01/14 05:13:56;;;;;;;23.35;18.75;;;;;;;0.01;82.55;99828.66;5073289;28;20379;-77
2021/01/14 05:17:02;;;;;;;28.20;20.83;;;;;;;0.00;82.49;99829.59;5073013;28;20044;-76
2021/01/14 05:20:07;;;;;;;29.50;20.40;;;;;;;-0.04;82.67;99833.31;5092871;28;20059;-78
2021/01/14 05:23:13;;;;;;;32.92;20.33;;;;;;;-0.04;82.57;99825.41;5091439;28;20363;-79
2021/01/14 05:26:31;;;;;;;26.50;20.25;;;;;;;-0.03;82.36;99821.84;5083483;28;20063;-78
2021/01/14 05:29:36;;;;;;;27.75;19.65;;;;;;;-0.08;82.57;99808.06;5074083;28;20059;-77
2021/01/14 05:32:45;;;;;;;25.15;19.13;;;;;;;-0.09;82.49;99798.41;5094900;28;20051;-79
2021/01/14 05:35:52;;;;;;;27.40;20.15;;;;;;;-0.08;82.43;99802.78;5075400;28;20067;-78
2021/01/14 05:38:58;;;;;;;27.92;20.00;;;;;;;-0.08;82.59;99798.34;5077524;28;20391;-78
2021/01/14 05:42:09;;;;;;;28.67;19.92;;;;;;;-0.11;82.68;99779.19;5095247;28;20047;-79
2021/01/14 05:45:23;;;;;;;24.02;17.88;;;;;;;-0.07;82.80;99799.19;5084578;28;20514;-78
2021/01/14 05:48:31;;;;;;;26.55;18.73;;;;;;;-0.12;82.49;99782.75;5091118;28;20439;-78
2021/01/14 05:51:36;;;;;;;25.98;18.58;;;;;;;-0.13;82.85;99781.06;5092471;28;20044;-77
2021/01/14 05:54:44;;;;;;;25.48;20.05;;;;;;;-0.17;82.86;99779.50;5075634;28;20056;-76
2021/01/14 05:58:02;;;;;;;24.85;18.90;;;;;;;-0.18;82.94;99762.84;5075924;28;20051;-77
2021/01/14 06:01:08;;;;;;;25.75;18.92;;;;;;;-0.18;83.03;99767.28;5076056;28;20044;-76
2021/01/14 06:04:17;;;;;;;25.45;18.23;;;;;;;-0.17;83.10;99766.31;5074721;28;20115;-75
2021/01/14 06:07:24;;;;;;;95.53;52.25;;;;;;;-0.19;82.73;99770.84;5081842;28;20043;-78
2021/01/14 06:10:33;;;;;;;56.97;35.72;;;;;;;-0.17;82.96;99768.97;5089601;28;20051;-77
2021/01/14 06:13:38;;;;;;;41.03;26.55;;;;;;;-0.19;82.83;99766.41;5086665;28;20399;-78
2021/01/14 06:16:49;;;;;;;28.90;19.27;;;;;;;-0.15;82.61;99759.22;5074808;28;20052;-77
2021/01/14 06:20:08;;;;;;;25.05;18.02;;;;;;;-0.15;82.71;99757.41;5075342;28;20047;-77
2021/01/14 06:23:13;;;;;;;29.92;20.67;;;;;;;-0.12;82.83;99759.88;5082953;28;20044;-77
2021/01/14 06:26:27;;;;;;;27.98;18.58;;;;;;;-0.12;82.97;99759.00;5075455;28;20058;-77
2021/01/14 06:29:36;;;;;;;29.05;20.10;;;;;;;-0.14;82.88;99750.34;5074659;28;20043;-76
2021/01/14 06:32:43;;;;;;;29.30;19.38;;;;;;;-0.22;83.63;99741.97;5080261;28;20394;-78
2021/01/14 06:35:48;;;;;;;27.85;19.02;;;;;;;-0.18;83.73;99735.63;5086663;28;20071;-77
2021/01/14 06:39:08;;;;;;;24.17;18.20;;;;;;;-0.13;83.49;99749.41;5074187;28;20048;-78
2021/01/14 06:42:20;;;;;;;25.20;17.95;;;;;;;-0.16;83.57;99746.94;5074996;28;20048;-76
2021/01/14 06:45:26;;;;;;;27.67;19.55;;;;;;;-0.24;83.81;99720.13;5074801;28;20491;-76
2021/01/14 06:48:40;;;;;;;30.58;20.17;;;;;;;-0.28;84.15;99727.38;5081145;28;20047;-78
2021/01/14 06:51:52;;;;;;;28.05;19.52;;;;;;;-0.27;84.15;99728.22;5074739;28;20408;-77
2021/01/14 06:54:58;;;;;;;26.25;20.15;;;;;;;-0.27;83.92;99707.13;5080766;28;20493;-78
2021/01/14 06:58:15;;;;;;;25.73;18.98;;;;;;;-0.19;84.19;99699.63;5094747;28;20051;-79
2021/01/14 07:01:21;;;;;;;30.27;20.33;;;;;;;-0.12;83.82;99714.19;5074380;28;20146;-76
2021/01/14 07:04:44;;;;;;;25.15;19.60;;;;;;;-0.15;84.00;99731.03;5074538;28;20060;-79
2021/01/14 07:08:09;;;;;;;29.33;19.83;;;;;;;-0.16;83.87;99741.66;5074423;28;20047;-78
2021/01/14 07:11:16;;;;;;;31.20;21.23;;;;;;;-0.09;83.52;99756.22;5082669;28;20048;-77
2021/01/14 07:14:25;;;;;;;34.00;25.45;;;;;;;-0.12;83.37;99759.88;5092869;28;20059;-77
2021/01/14 07:17:36;;;;;;;41.72;27.10;;;;;;;-0.01;82.65;99759.31;5080570;28;20055;-76
2021/01/14 07:20:40;;;;;;;39.72;27.08;;;;;;;0.09;82.64;99763.16;5074385;28;20055;-78
2021/01/14 07:24:22;;;;;;;29.25;19.10;;;;;;;0.29;81.40;99797.22;5082825;28;20043;-79
2021/01/14 07:27:26;;;;;;;21.17;15.52;;;;;;;0.47;80.00;99804.09;5073890;28;20043;-77
2021/01/14 07:30:31;;;;;;;20.63;13.93;;;;;;;0.45;79.56;99819.19;5081303;28;20406;-77
2021/01/14 07:33:35;;;;;;;21.90;15.45;;;;;;;0.59;79.45;99836.91;5092796;28;20055;-77
2021/01/14 07:36:42;;;;;;;28.70;18.25;;;;;;;0.90;78.78;99846.59;5072671;28;20407;-76
2021/01/14 07:39:53;;;;;;;36.75;21.95;;;;;;;1.25;77.14;99848.94;5086426;28;20055;-78
2021/01/14 07:42:58;;;;;;;28.42;20.52;;;;;;;1.27;76.53;99841.78;5093526;28;20051;-75
2021/01/14 07:46:16;;;;;;;25.40;19.08;;;;;;;1.61;76.18;99837.97;5094196;28;20462;-75
2021/01/14 07:49:27;;;;;;;29.88;20.50;;;;;;;2.33;74.46;99839.75;5094254;28;20051;-77
2021/01/14 07:52:35;;;;;;;43.13;27.65;;;;;;;2.94;72.22;99842.84;5092757;28;20502;-82
2021/01/14 07:55:40;;;;;;;28.90;19.58;;;;;;;3.45;69.18;99856.28;5092898;28;20051;-78
2021/01/14 07:58:46;;;;;;;26.88;18.70;;;;;;;3.82;67.07;99852.88;5080205;28;20576;-76
2021/01/14 08:02:11;;;;;;;25.98;18.48;;;;;;;4.10;65.63;99867.75;5075863;28;20052;-78
2021/01/14 08:05:41;;;;;;;34.90;24.33;;;;;;;4.66;64.44;99866.41;5092614;28;20059;-77
2021/01/14 08:09:02;;;;;;;26.67;20.35;;;;;;;5.47;61.31;99863.03;5090755;28;20047;-78
2021/01/14 08:12:06;;;;;;;25.15;19.38;;;;;;;5.55;60.58;99879.28;5092445;28;20047;-78
2021/01/14 08:15:37;;;;;;;32.55;19.63;;;;;;;6.24;58.76;99885.56;5086344;28;20059;-76
2021/01/14 08:18:42;;;;;;;25.63;18.80;;;;;;;6.97;56.30;99886.78;5083971;28;20055;-76
2021/01/14 08:22:06;;;;;;;23.63;17.13;;;;;;;8.31;52.31;99884.47;5077212;28;20055;-77
2021/01/14 08:25:15;;;;;;;26.30;18.38;;;;;;;9.25;50.05;99895.72;5084251;28;20047;-78
2021/01/14 08:28:20;;;;;;;23.40;18.58;;;;;;;10.81;45.95;99883.75;5092792;28;20071;-76
2021/01/14 08:31:36;;;;;;;25.02;18.65;;;;;;;11.89;42.43;99885.50;5093202;28;20042;-78
2021/01/14 08:34:49;;;;;;;21.20;17.20;;;;;;;12.82;40.03;99874.03;5089402;28;20039;-78
2021/01/14 08:38:01;;;;;;;23.40;18.77;;;;;;;13.74;38.52;99874.91;5072851;28;20506;-78
2021/01/14 08:41:26;;;;;;;24.58;18.15;;;;;;;14.52;36.65;99872.53;5073403;28;20387;-78
2021/01/14 08:44:33;;;;;;;25.70;20.10;;;;;;;14.66;36.28;99864.59;5072286;28;20063;-77
2021/01/14 08:47:52;;;;;;;25.23;20.02;;;;;;;16.12;33.95;99876.34;5081616;28;20048;-78
2021/01/14 08:50:56;;;;;;;24.63;19.58;;;;;;;19.22;29.24;99868.88;5077195;28;20043;-77
2021/01/14 08:54:04;;;;;;;23.77;19.10;;;;;;;20.98;26.03;99862.03;5091764;28;20043;-77
2021/01/14 08:57:09;;;;;;;26.25;19.15;;;;;;;21.87;25.33;99863.00;5087437;28;20051;-78
2021/01/14 09:00:15;;;;;;;29.10;20.60;;;;;;;23.85;23.67;99853.44;5090660;28;20047;-78
2021/01/14 09:03:21;;;;;;;24.23;20.88;;;;;;;24.79;22.59;99846.28;5086428;28;20423;-79
2021/01/14 09:06:42;;;;;;;27.25;22.70;;;;;;;24.33;22.76;99875.31;5074825;28;20056;-80
2021/01/14 09:09:52;;;;;;;29.17;24.05;;;;;;;25.52;22.03;99872.13;5075510;28;20399;-79
2021/01/14 09:13:06;;;;;;;27.70;23.95;;;;;;;24.17;22.82;99880.66;5075613;28;20502;-80
2021/01/14 09:16:11;;;;;;;28.83;24.42;;;;;;;22.75;24.53;99891.16;5074948;28;20055;-78
2021/01/14 09:19:17;;;;;;;27.98;25.05;;;;;;;23.55;23.74;99890.97;5092610;28;20063;-77
2021/01/14 09:22:28;;;;;;;34.47;25.75;;;;;;;24.22;22.63;99898.06;5075469;28;20059;-78
2021/01/14 09:25:33;;;;;;;31.10;26.25;;;;;;;25.17;22.21;99877.66;5094085;28;20154;-78
2021/01/14 09:28:39;;;;;;;30.02;26.83;;;;;;;23.39;24.07;99893.47;5081205;28;20126;-78
2021/01/14 09:31:43;;;;;;;31.38;27.95;;;;;;;22.10;25.75;99895.22;5075875;28;20047;-78
2021/01/14 09:34:47;;;;;;;33.22;29.63;;;;;;;20.37;27.94;99891.47;5074282;28;20055;-78
2021/01/14 09:37:55;;;;;;;35.22;31.48;;;;;;;16.93;33.27;99894.56;5085409;28;20396;-78
2021/01/14 09:41:01;;;;;;;35.88;31.98;;;;;;;14.71;38.04;99910.84;5094505;28;20059;-77
2021/01/14 09:44:09;;;;;;;37.47;33.40;;;;;;;13.43;41.30;99909.69;5094580;28;20510;-77
2021/01/14 09:47:14;;;;;;;41.67;37.10;;;;;;;12.78;42.51;99905.00;5095179;28;20055;-77
2021/01/14 09:50:19;;;;;;;45.13;37.95;;;;;;;12.15;44.92;99917.81;5094932;28;20063;-77
2021/01/14 09:53:23;;;;;;;45.88;40.03;;;;;;;12.00;45.44;99914.84;5095708;28;20514;-78
2021/01/14 09:56:43;;;;;;;44.58;39.25;;;;;;;12.04;45.50;99916.25;5095653;28;20059;-79
2021/01/14 09:59:50;;;;;;;45.13;40.22;;;;;;;11.44;47.58;99911.53;5080275;28;20059;-78
2021/01/14 10:03:05;;;;;;;47.20;40.60;;;;;;;11.28;47.81;99896.09;5089208;28;20044;-78
2021/01/14 10:06:10;;;;;;;45.72;39.85;;;;;;;11.13;48.87;99894.91;5095582;28;20536;-78
2021/01/14 10:09:15;;;;;;;51.28;40.75;;;;;;;10.50;50.00;99893.03;5095790;28;20418;-76
2021/01/14 10:12:20;;;;;;;45.13;39.75;;;;;;;10.70;50.50;99884.78;5095004;28;20071;-77
2021/01/14 10:15:24;;;;;;;49.47;41.20;;;;;;;10.48;50.53;99895.88;5094984;28;20055;-77
2021/01/14 10:18:29;;;;;;;46.78;41.15;;;;;;;10.15;51.76;99883.78;5093965;28;20141;-78
2021/01/14 10:21:36;;;;;;;48.90;42.38;;;;;;;10.06;52.67;99889.97;5076688;28;20048;-77
2021/01/14 10:24:40;;;;;;;50.42;42.83;;;;;;;10.15;52.74;99886.47;5094918;28;20489;-77
2021/01/14 10:28:10;;;;;;;48.00;41.30;;;;;;;10.06;51.95;99891.81;5094977;28;20055;-76
2021/01/14 10:31:34;;;;;;;46.53;41.30;;;;;;;9.33;53.67;99889.66;5095597;28;20063;-77
2021/01/14 10:34:40;;;;;;;;;;;;;;;9.23;56.22;99895.00;5095053;28;20054;-77
2021/01/14 10:37:44;;;;;;;52.17;41.72;;;;;;;9.19;56.34;99904.28;5094651;28;19923;-78
2021/01/14 10:40:51;;;;;;;47.85;41.15;;;;;;;9.22;55.02;99895.97;5094724;28;20047;-78
2021/01/14 10:44:05;;;;;;;50.03;42.70;;;;;;;9.26;55.51;99901.91;5094788;28;20047;-78
2021/01/14 10:47:15;;;;;;;;;;;;;;;9.32;56.29;99907.56;5095612;28;20059;-78
2021/01/14 10:50:23;;;;;;;55.17;44.20;;;;;;;9.35;56.42;99917.16;5094443;28;20378;-78
2021/01/14 10:53:28;;;;;;;50.03;43.65;;;;;;;9.31;55.74;99919.25;5094550;28;20039;-77
2021/01/14 10:56:33;;;;;;;49.03;41.60;;;;;;;9.41;54.77;99905.88;5094105;28;20047;-78
2021/01/14 10:59:38;;;;;;;52.38;43.90;;;;;;;9.33;54.97;99900.38;5077873;28;20043;-75
2021/01/14 11:02:44;;;;;;;49.00;41.83;;;;;;;9.25;55.71;99901.06;5090756;28;20043;-77
2021/01/14 11:05:52;;;;;;;50.40;43.55;;;;;;;9.24;55.78;99902.03;5078646;28;20047;-78
2021/01/14 11:09:03;;;;;;;46.15;39.78;;;;;;;9.17;55.74;99906.25;5089298;28;20051;-78
2021/01/14 11:12:09;;;;;;;46.83;39.17;;;;;;;9.17;55.68;99906.25;5092729;28;20062;-79
2021/01/14 11:15:14;;;;;;;46.83;37.95;;;;;;;9.05;55.47;99902.84;5073579;28;20043;-77
2021/01/14 11:18:18;;;;;;;45.40;38.80;;;;;;;8.76;55.63;99906.38;5073663;28;20059;-76
2021/01/14 11:21:38;;;;;;;42.75;36.88;;;;;;;8.61;56.65;99902.38;5073585;28;20052;-78
2021/01/14 11:24:43;;;;;;;43.13;36.85;;;;;;;8.66;56.84;99892.13;5073605;28;20403;-79
2021/01/14 11:27:47;;;;;;;40.53;35.85;;;;;;;8.43;57.08;99900.31;5072469;28;20044;-78
2021/01/14 11:30:52;;;;;;;47.72;37.75;;;;;;;8.29;58.11;99892.63;5073863;28;20056;-77
2021/01/14 11:33:57;;;;;;;47.28;37.38;;;;;;;8.43;57.82;99881.59;5073519;28;20423;-77
2021/01/14 11:37:01;;;;;;;45.83;36.85;;;;;;;8.50;57.22;99882.75;5073583;28;20052;-77
2021/01/14 11:40:06;;;;;;;45.83;39.15;;;;;;;8.46;58.18;99884.00;5073463;28;20517;-79
2021/01/14 11:43:10;;;;;;;43.72;37.67;;;;;;;8.28;59.11;99872.22;5073727;28;20051;-79
2021/01/14 11:46:18;;;;;;;45.22;37.85;;;;;;;8.45;59.39;99874.28;5073304;28;20498;-78
2021/01/14 11:49:23;;;;;;;44.38;37.58;;;;;;;8.27;60.34;99869.69;5080129;28;20522;-78
2021/01/14 11:52:29;;;;;;;50.58;39.60;;;;;;;8.31;60.33;99873.78;5093471;28;20509;-78
2021/01/14 11:55:34;;;;;;;45.05;35.13;;;;;;;8.24;60.43;99873.44;5092152;28;20047;-77
2021/01/14 11:58:38;;;;;;;47.78;37.72;;;;;;;8.37;59.89;99871.41;5093394;28;20426;-78
2021/01/14 12:01:42;;;;;;;44.85;35.80;;;;;;;8.26;60.43;99870.63;5092748;28;20047;-77
2021/01/14 12:04:47;;;;;;;39.78;33.25;;;;;;;8.21;61.11;99879.03;5073417;28;20419;-79
2021/01/14 12:07:51;;;;;;;41.60;33.05;;;;;;;8.32;60.71;99862.13;5073249;28;20051;-78
2021/01/14 12:10:55;;;;;;;41.03;33.60;;;;;;;8.20;61.60;99863.97;5073036;28;20043;-77
2021/01/14 12:14:00;;;;;;;38.60;30.42;;;;;;;8.24;61.43;99854.72;5072155;28;20052;-77
2021/01/14 12:17:04;;;;;;;38.50;31.75;;;;;;;8.31;61.81;99844.38;5073145;28;20391;-77
2021/01/14 12:20:09;;;;;;;36.13;29.58;;;;;;;8.39;60.85;99845.38;5073246;28;20067;-78
2021/01/14 12:23:13;;;;;;;40.67;30.13;;;;;;;8.19;61.96;99846.25;5071874;28;20044;-78
2021/01/14 12:26:19;;;;;;;36.38;30.85;;;;;;;8.08;62.29;99832.94;5072612;28;20059;-77
2021/01/14 12:29:24;;;;;;;34.30;30.10;;;;;;;8.08;62.70;99830.25;5071896;28;20044;-78
2021/01/14 12:32:28;;;;;;;36.33;30.30;;;;;;;8.06;62.59;99842.06;5072676;28;20056;-78
2021/01/14 12:35:32;;;;;;;35.00;31.10;;;;;;;8.15;63.10;99842.13;5072746;28;20048;-78
2021/01/14 12:38:37;;;;;;;36.70;31.75;;;;;;;8.19;63.09;99848.91;5073617;28;20427;-78
2021/01/14 12:41:41;;;;;;;38.63;33.05;;;;;;;8.08;63.57;99845.44;5078800;28;20056;-78
2021/01/14 12:44:46;;;;;;;37.10;31.65;;;;;;;8.11;62.79;99843.38;5074500;28;20110;-78
2021/01/14 12:47:50;;;;;;;38.00;30.10;;;;;;;8.09;63.54;99834.66;5075163;28;20059;-78
2021/01/14 12:50:55;;;;;;;35.22;29.27;;;;;;;8.09;62.64;99831.97;5075350;28;20063;-78
2021/01/14 12:53:59;;;;;;;36.17;29.95;;;;;;;8.01;63.58;99836.25;5077075;28;20063;-79
2021/01/14 12:57:04;;;;;;;38.38;31.73;;;;;;;8.05;63.93;99832.38;5096063;28;20048;-78
2021/01/14 13:00:09;;;;;;;39.92;31.40;;;;;;;8.13;63.70;99835.22;5097070;28;20398;-78
2021/01/14 13:03:13;;;;;;;38.20;31.98;;;;;;;8.06;63.92;99847.41;5095970;28;20055;-78
2021/01/14 13:06:25;;;;;;;39.97;32.67;;;;;;;8.13;63.64;99835.22;5095541;28;20051;-79
2021/01/14 13:09:29;;;;;;;38.50;32.08;;;;;;;8.10;62.99;99851.53;5096576;28;20051;-78
2021/01/14 13:12:34;;;;;;;36.38;30.27;;;;;;;8.05;62.83;99843.88;5096993;28;20055;-78
2021/01/14 13:15:39;;;;;;;41.00;30.60;;;;;;;8.03;62.52;99864.56;5097148;28;20074;-78
2021/01/14 13:18:43;;;;;;;39.08;32.05;;;;;;;7.99;63.10;99862.28;5097199;28;20067;-78
2021/01/14 13:21:50;;;;;;;40.15;33.33;;;;;;;8.02;63.67;99860.22;5096976;28;20071;-78
2021/01/14 13:24:54;;;;;;;42.97;34.97;;;;;;;8.01;64.04;99869.19;5097030;28;20059;-78
2021/01/14 13:27:58;;;;;;;50.45;34.10;;;;;;;8.09;63.62;99866.72;5089438;28;20063;-78
2021/01/14 13:31:03;;;;;;;49.65;41.88;;;;;;;7.90;66.52;99871.91;5075891;28;20043;-78
2021/01/14 13:34:08;;;;;;;63.50;50.58;;;;;;;7.55;69.46;99890.06;5095567;28;20506;-77
2021/01/14 13:37:14;;;;;;;63.70;53.63;;;;;;;7.46;71.02;99890.78;5096183;28;20043;-76
2021/01/14 13:40:19;;;;;;;67.60;52.78;;;;;;;7.45;71.57;99892.66;5092676;28;20510;-79
2021/01/14 13:43:23;;;;;;;68.50;56.22;;;;;;;7.29;71.91;99886.84;5092558;28;20402;-78
2021/01/14 13:46:28;;;;;;;69.10;55.55;;;;;;;7.30;72.19;99893.91;5094145;28;20043;-77
2021/01/14 13:49:32;;;;;;;68.25;56.28;;;;;;;7.26;72.67;99896.94;5095384;28;20051;-78
2021/01/14 13:52:37;;;;;;;73.55;60.70;;;;;;;7.26;72.80;99904.94;5089080;28;20047;-79
2021/01/14 13:55:42;;;;;;;70.97;59.28;;;;;;;7.17;72.88;99907.38;5083572;28;20051;-79
2021/01/14 13:58:47;;;;;;;75.43;60.92;;;;;;;7.20;72.96;99915.16;5094081;28;20040;-78
2021/01/14 14:01:51;;;;;;;74.38;62.28;;;;;;;7.10;73.53;99922.19;5096101;28;20071;-77
2021/01/14 14:04:56;;;;;;;74.13;60.63;;;;;;;7.03;73.80;99921.00;5096203;28;20048;-78
2021/01/14 14:08:00;;;;;;;71.60;61.45;;;;;;;6.94;73.65;99927.06;5084895;28;20047;-79
2021/01/14 14:11:04;;;;;;;74.20;61.60;;;;;;;6.98;73.63;99939.19;5093645;28;20055;-78
2021/01/14 14:14:14;;;;;;;74.95;62.38;;;;;;;6.92;74.15;99942.34;5096266;28;20055;-78
2021/01/14 14:17:18;;;;;;;74.70;62.20;;;;;;;7.01;73.86;99944.25;5095269;28;20043;-77
2021/01/14 14:20:24;;;;;;;80.13;63.63;;;;;;;6.97;73.08;99952.63;5095788;28;20051;-78
2021/01/14 14:23:28;;;;;;;75.85;62.33;;;;;;;6.88;73.35;99956.91;5095373;28;20055;-79
2021/01/14 14:26:35;;;;;;;72.68;61.83;;;;;;;6.86;73.63;99972.19;5095579;28;20055;-76
2021/01/14 14:29:39;;;;;;;75.75;63.63;;;;;;;6.88;73.70;99970.25;5094529;28;20058;-76